createdAt,value
2023-07-18T00:01:38.824Z,17.16
2023-07-18T00:04:09.612Z,17.36
2023-07-18T00:06:42.086Z,17.52
2023-07-18T00:09:10.108Z,17.54
2023-07-18T00:11:38.158Z,17.70
2023-07-18T00:14:06.167Z,17.74
2023-07-18T00:16:34.016Z,17.84
2023-07-18T00:19:01.535Z,17.00
2023-07-18T00:21:28.991Z,17.17
2023-07-18T00:23:57.485Z,17.22
2023-07-18T00:26:25.774Z,17.33
2023-07-18T00:28:56.130Z,17.09
2023-07-18T00:31:25.370Z,17.17
2023-07-18T00:33:52.873Z,17.11
2023-07-18T00:36:23.214Z,16.83
2023-07-18T00:38:50.742Z,16.53
2023-07-18T00:41:18.395Z,16.98
2023-07-18T00:43:46.051Z,16.20
2023-07-18T00:46:15.037Z,15.91
2023-07-18T00:48:42.374Z,15.63
2023-07-18T00:51:10.792Z,16.39
2023-07-18T00:53:40.792Z,16.55
2023-07-18T00:56:10.006Z,16.67
2023-07-18T00:58:37.778Z,16.67
2023-07-18T01:01:06.387Z,16.62
2023-07-18T01:03:36.841Z,16.71
2023-07-18T01:06:05.315Z,16.71
2023-07-18T01:08:32.890Z,16.80
2023-07-18T01:11:00.947Z,16.64
2023-07-18T01:13:28.576Z,16.10
2023-07-18T01:15:56.126Z,16.15
2023-07-18T01:18:23.414Z,16.32
2023-07-18T01:20:50.870Z,16.30
2023-07-18T01:23:18.449Z,16.39
2023-07-18T01:25:46.076Z,16.27
2023-07-18T01:28:14.626Z,16.38
2023-07-18T01:30:42.260Z,16.02
2023-07-18T01:33:09.610Z,16.03
2023-07-18T01:35:38.742Z,15.80
2023-07-18T01:38:07.118Z,15.80
2023-07-18T01:40:34.554Z,15.85
2023-07-18T01:43:04.978Z,15.65
2023-07-18T01:45:38.629Z,15.57
2023-07-18T01:48:07.851Z,15.83
2023-07-18T01:50:35.533Z,15.84
2023-07-18T01:53:05.370Z,15.54
2023-07-18T01:55:32.859Z,15.94
2023-07-18T01:58:04.603Z,16.34
2023-07-18T02:04:19.847Z,16.27
2023-07-18T02:06:47.632Z,16.50
2023-07-18T02:09:15.020Z,16.43
2023-07-18T02:11:42.483Z,16.12
2023-07-18T02:14:09.768Z,16.00
2023-07-18T02:16:37.364Z,16.05
2023-07-18T02:19:05.339Z,16.01
2023-07-18T02:21:35.814Z,16.09
2023-07-18T02:24:04.774Z,16.40
2023-07-18T02:26:32.276Z,16.16
2023-07-18T02:28:59.574Z,16.16
2023-07-18T02:31:27.053Z,15.60
2023-07-18T02:33:55.179Z,15.51
2023-07-18T02:36:23.317Z,15.22
2023-07-18T02:38:50.623Z,15.21
2023-07-18T02:41:19.292Z,15.43
2023-07-18T02:43:47.548Z,15.36
2023-07-18T02:46:15.234Z,15.71
2023-07-18T02:48:43.683Z,15.87
2023-07-18T02:51:12.103Z,16.08
2023-07-18T02:53:42.822Z,15.88
2023-07-18T02:56:10.475Z,15.47
2023-07-18T02:58:38.008Z,15.30
2023-07-18T03:01:05.651Z,15.64
2023-07-18T03:03:34.193Z,15.45
2023-07-18T03:06:02.208Z,15.77
2023-07-18T03:08:33.846Z,15.56
2023-07-18T03:11:07.663Z,15.83
2023-07-18T03:13:35.170Z,15.92
2023-07-18T03:16:05.664Z,15.87
2023-07-18T03:18:33.720Z,15.78
2023-07-18T03:21:01.506Z,15.81
2023-07-18T03:23:29.002Z,15.80
2023-07-18T03:25:56.851Z,15.72
2023-07-18T03:28:24.444Z,15.42
2023-07-18T03:30:51.853Z,15.63
2023-07-18T03:33:19.228Z,15.67
2023-07-18T03:35:49.427Z,15.83
2023-07-18T03:38:17.048Z,15.61
2023-07-18T03:40:47.836Z,15.62
2023-07-18T03:43:15.436Z,15.55
2023-07-18T03:45:42.753Z,15.61
2023-07-18T03:48:10.347Z,15.68
2023-07-18T03:50:37.994Z,15.77
2023-07-18T03:53:05.460Z,15.66
2023-07-18T03:55:32.857Z,15.61
2023-07-18T03:58:03.253Z,15.38
2023-07-18T04:00:30.718Z,15.68
2023-07-18T04:02:59.081Z,15.83
2023-07-18T04:05:29.865Z,15.74
2023-07-18T04:07:59.657Z,15.85
2023-07-18T04:10:27.114Z,15.90
2023-07-18T04:12:54.371Z,15.97
2023-07-18T04:15:24.554Z,16.02
2023-07-18T04:17:52.004Z,16.08
2023-07-18T04:20:21.327Z,16.00
2023-07-18T04:22:49.000Z,16.02
2023-07-18T04:25:16.637Z,16.05
2023-07-18T04:27:45.882Z,16.10
2023-07-18T04:30:13.697Z,16.03
2023-07-18T04:32:44.479Z,15.81
2023-07-18T04:35:11.968Z,15.94
2023-07-18T04:37:39.407Z,15.97
2023-07-18T04:40:07.728Z,16.03
2023-07-18T04:42:35.518Z,16.03
2023-07-18T04:45:06.205Z,16.04
2023-07-18T04:47:34.523Z,16.07
2023-07-18T04:50:01.969Z,16.16
2023-07-18T04:52:29.729Z,16.10
2023-07-18T04:54:57.349Z,15.99
2023-07-18T04:57:25.651Z,16.14
2023-07-18T04:59:52.984Z,16.21
2023-07-18T05:02:20.844Z,16.29
2023-07-18T05:04:48.270Z,16.38
2023-07-18T05:07:16.502Z,16.49
2023-07-18T05:09:43.767Z,16.56
2023-07-18T05:12:11.263Z,16.56
2023-07-18T05:14:38.657Z,16.63
2023-07-18T05:17:06.264Z,16.57
2023-07-18T05:19:33.678Z,16.72
2023-07-18T05:22:01.185Z,16.77
2023-07-18T05:24:28.457Z,16.07
2023-07-18T05:26:55.911Z,15.87
2023-07-18T05:29:25.517Z,16.02
2023-07-18T05:31:53.066Z,15.92
2023-07-18T05:34:20.500Z,16.11
2023-07-18T05:36:48.008Z,15.81
2023-07-18T05:39:15.303Z,16.15
2023-07-18T05:41:42.797Z,15.67
2023-07-18T05:44:11.573Z,15.56
2023-07-18T05:46:41.247Z,15.34
2023-07-18T05:49:09.143Z,15.64
2023-07-18T05:51:36.537Z,15.77
2023-07-18T05:54:05.923Z,16.02
2023-07-18T05:56:34.229Z,16.00
2023-07-18T05:59:02.418Z,16.39
2023-07-18T06:01:29.764Z,16.84
2023-07-18T06:03:57.770Z,17.09
2023-07-18T06:06:28.473Z,17.03
2023-07-18T06:08:56.565Z,17.06
2023-07-18T06:11:27.163Z,17.20
2023-07-18T06:13:54.690Z,17.52
2023-07-18T06:16:22.194Z,17.77
2023-07-18T06:18:49.985Z,17.75
2023-07-18T06:21:17.844Z,17.69
2023-07-18T06:23:47.625Z,17.89
2023-07-18T06:26:15.583Z,18.26
2023-07-18T06:28:43.203Z,18.05
2023-07-18T06:31:12.184Z,18.17
2023-07-18T06:33:40.450Z,18.26
2023-07-18T06:36:08.153Z,18.38
2023-07-18T06:38:35.775Z,18.56
2023-07-18T06:41:03.368Z,18.61
2023-07-18T06:43:31.048Z,18.53
2023-07-18T06:45:58.720Z,18.87
2023-07-18T06:48:26.566Z,18.71
2023-07-18T06:50:57.988Z,18.75
2023-07-18T06:53:25.494Z,18.74
2023-07-18T06:55:56.239Z,19.01
2023-07-18T06:58:23.766Z,18.88
2023-07-18T07:00:51.947Z,18.80
2023-07-18T07:03:19.733Z,18.87
2023-07-18T07:05:47.539Z,19.01
2023-07-18T07:08:15.307Z,19.17
2023-07-18T07:10:44.023Z,18.94
2023-07-18T07:13:14.847Z,19.22
2023-07-18T07:15:42.711Z,19.35
2023-07-18T07:18:10.449Z,19.40
2023-07-18T07:20:38.122Z,19.85
2023-07-18T07:23:05.957Z,19.29
2023-07-18T07:25:37.151Z,19.77
2023-07-18T07:28:06.524Z,20.15
2023-07-18T07:30:34.233Z,19.92
2023-07-18T07:33:02.018Z,19.96
2023-07-18T07:35:30.913Z,20.08
2023-07-18T07:37:58.688Z,20.16
2023-07-18T07:40:26.566Z,20.31
2023-07-18T07:42:54.167Z,20.35
